sensor_id;sensor_type;location;lat;lon;timestamp;temperature;humidity
20319;DHT22;10317;47.254;11.314;2023-08-06T00:02:25;14.00;99.90
20319;DHT22;10317;47.254;11.314;2023-08-06T00:04:50;14.00;99.90
20319;DHT22;10317;47.254;11.314;2023-08-06T00:07:16;14.00;99.90
20319;DHT22;10317;47.254;11.314;2023-08-06T00:09:42;13.90;99.90
20319;DHT22;10317;47.254;11.314;2023-08-06T00:12:08;13.90;99.90
20319;DHT22;10317;47.254;11.314;2023-08-06T00:14:34;13.80;99.90
20319;DHT22;10317;47.254;11.314;2023-08-06T00:16:59;13.90;99.90
20319;DHT22;10317;47.254;11.314;2023-08-06T00:19:25;13.80;99.90
20319;DHT22;10317;47.254;11.314;2023-08-06T00:21:51;13.80;99.90
20319;DHT22;10317;47.254;11.314;2023-08-06T00:24:16;13.80;99.90
20319;DHT22;10317;47.254;11.314;2023-08-06T00:26:42;13.80;99.90
20319;DHT22;10317;47.254;11.314;2023-08-06T00:29:08;13.80;99.90
20319;DHT22;10317;47.254;11.314;2023-08-06T00:31:33;13.80;99.90
20319;DHT22;10317;47.254;11.314;2023-08-06T00:33:59;13.80;99.90
20319;DHT22;10317;47.254;11.314;2023-08-06T00:36:24;13.80;99.90
20319;DHT22;10317;47.254;11.314;2023-08-06T00:38:50;13.80;99.90
20319;DHT22;10317;47.254;11.314;2023-08-06T00:41:16;13.80;99.90
20319;DHT22;10317;47.254;11.314;2023-08-06T00:43:41;13.80;99.90
20319;DHT22;10317;47.254;11.314;2023-08-06T00:46:07;13.80;99.90
20319;DHT22;10317;47.254;11.314;2023-08-06T00:48:33;13.80;99.90
20319;DHT22;10317;47.254;11.314;2023-08-06T00:50:59;13.70;99.90
20319;DHT22;10317;47.254;11.314;2023-08-06T00:53:24;13.70;99.90
20319;DHT22;10317;47.254;11.314;2023-08-06T00:55:51;13.70;99.90
20319;DHT22;10317;47.254;11.314;2023-08-06T00:58:17;13.70;99.90
20319;DHT22;10317;47.254;11.314;2023-08-06T01:00:43;13.70;99.90
20319;DHT22;10317;47.254;11.314;2023-08-06T01:03:08;13.70;99.90
20319;DHT22;10317;47.254;11.314;2023-08-06T01:05:34;13.70;99.90
20319;DHT22;10317;47.254;11.314;2023-08-06T01:11:14;13.70;99.90
20319;DHT22;10317;47.254;11.314;2023-08-06T01:16:28;13.70;99.90
20319;DHT22;10317;47.254;11.314;2023-08-06T01:18:58;13.70;99.90
20319;DHT22;10317;47.254;11.314;2023-08-06T01:21:24;13.70;99.90
20319;DHT22;10317;47.254;11.314;2023-08-06T01:23:49;13.70;99.90
20319;DHT22;10317;47.254;11.314;2023-08-06T01:26:30;13.70;99.90
20319;DHT22;10317;47.254;11.314;2023-08-06T01:31:37;13.70;99.90
20319;DHT22;10317;47.254;11.314;2023-08-06T01:34:07;13.70;99.90
20319;DHT22;10317;47.254;11.314;2023-08-06T01:36:35;13.70;99.90
20319;DHT22;10317;47.254;11.314;2023-08-06T01:39:01;13.70;99.90
20319;DHT22;10317;47.254;11.314;2023-08-06T01:41:27;13.70;99.90
20319;DHT22;10317;47.254;11.314;2023-08-06T01:43:53;13.70;99.90
20319;DHT22;10317;47.254;11.314;2023-08-06T01:46:18;13.70;99.90
20319;DHT22;10317;47.254;11.314;2023-08-06T01:48:44;13.70;99.90
20319;DHT22;10317;47.254;11.314;2023-08-06T01:51:10;13.70;99.90
20319;DHT22;10317;47.254;11.314;2023-08-06T01:53:35;13.70;99.90
20319;DHT22;10317;47.254;11.314;2023-08-06T01:56:01;13.70;99.90
20319;DHT22;10317;47.254;11.314;2023-08-06T01:58:27;13.70;99.90
20319;DHT22;10317;47.254;11.314;2023-08-06T02:00:53;13.70;99.90
20319;DHT22;10317;47.254;11.314;2023-08-06T02:03:18;13.60;99.90
20319;DHT22;10317;47.254;11.314;2023-08-06T02:05:44;13.60;99.90
20319;DHT22;10317;47.254;11.314;2023-08-06T02:08:11;13.60;99.90
20319;DHT22;10317;47.254;11.314;2023-08-06T02:10:36;13.60;99.90
20319;DHT22;10317;47.254;11.314;2023-08-06T02:13:02;13.60;99.90
20319;DHT22;10317;47.254;11.314;2023-08-06T02:15:28;13.60;99.90
20319;DHT22;10317;47.254;11.314;2023-08-06T02:17:53;13.60;99.90
20319;DHT22;10317;47.254;11.314;2023-08-06T02:20:19;13.60;99.90
20319;DHT22;10317;47.254;11.314;2023-08-06T02:22:46;13.60;99.90
20319;DHT22;10317;47.254;11.314;2023-08-06T02:25:11;13.60;99.90
20319;DHT22;10317;47.254;11.314;2023-08-06T02:27:37;13.50;99.90
20319;DHT22;10317;47.254;11.314;2023-08-06T02:30:04;13.50;99.90
20319;DHT22;10317;47.254;11.314;2023-08-06T02:32:30;13.50;99.90
20319;DHT22;10317;47.254;11.314;2023-08-06T02:34:57;13.40;99.90
20319;DHT22;10317;47.254;11.314;2023-08-06T02:37:22;13.40;99.90
20319;DHT22;10317;47.254;11.314;2023-08-06T02:39:48;13.50;99.90
20319;DHT22;10317;47.254;11.314;2023-08-06T02:42:14;13.40;99.90
20319;DHT22;10317;47.254;11.314;2023-08-06T02:44:40;13.40;99.90
20319;DHT22;10317;47.254;11.314;2023-08-06T02:47:06;13.50;99.90
20319;DHT22;10317;47.254;11.314;2023-08-06T02:49:31;13.40;99.90
20319;DHT22;10317;47.254;11.314;2023-08-06T02:51:57;13.40;99.90
20319;DHT22;10317;47.254;11.314;2023-08-06T02:54:23;13.40;99.90
20319;DHT22;10317;47.254;11.314;2023-08-06T02:56:48;13.30;99.90
20319;DHT22;10317;47.254;11.314;2023-08-06T02:59:14;13.30;99.90
20319;DHT22;10317;47.254;11.314;2023-08-06T03:01:40;13.30;99.90
20319;DHT22;10317;47.254;11.314;2023-08-06T03:04:05;13.20;99.90
20319;DHT22;10317;47.254;11.314;2023-08-06T03:06:31;13.20;99.90
20319;DHT22;10317;47.254;11.314;2023-08-06T03:08:57;13.20;99.90
20319;DHT22;10317;47.254;11.314;2023-08-06T03:11:22;13.20;99.90
20319;DHT22;10317;47.254;11.314;2023-08-06T03:13:48;13.20;99.90
20319;DHT22;10317;47.254;11.314;2023-08-06T03:16:14;13.20;99.90
20319;DHT22;10317;47.254;11.314;2023-08-06T03:18:40;13.20;99.90
20319;DHT22;10317;47.254;11.314;2023-08-06T03:21:06;13.20;99.90
20319;DHT22;10317;47.254;11.314;2023-08-06T03:23:32;13.20;99.90
20319;DHT22;10317;47.254;11.314;2023-08-06T03:26:04;13.20;99.90
20319;DHT22;10317;47.254;11.314;2023-08-06T03:28:30;13.20;99.90
20319;DHT22;10317;47.254;11.314;2023-08-06T03:31:02;13.10;99.90
20319;DHT22;10317;47.254;11.314;2023-08-06T03:33:28;13.10;99.90
20319;DHT22;10317;47.254;11.314;2023-08-06T03:35:54;13.10;99.90
20319;DHT22;10317;47.254;11.314;2023-08-06T03:38:20;13.10;99.90
20319;DHT22;10317;47.254;11.314;2023-08-06T03:40:46;13.10;99.90
20319;DHT22;10317;47.254;11.314;2023-08-06T03:43:12;13.10;99.90
20319;DHT22;10317;47.254;11.314;2023-08-06T03:45:38;13.10;99.90
20319;DHT22;10317;47.254;11.314;2023-08-06T03:48:04;13.10;99.90
20319;DHT22;10317;47.254;11.314;2023-08-06T03:50:29;13.10;99.90
20319;DHT22;10317;47.254;11.314;2023-08-06T03:52:55;13.10;99.90
20319;DHT22;10317;47.254;11.314;2023-08-06T03:55:21;13.00;99.90
20319;DHT22;10317;47.254;11.314;2023-08-06T03:57:46;13.00;99.90
20319;DHT22;10317;47.254;11.314;2023-08-06T04:00:12;13.00;99.90
20319;DHT22;10317;47.254;11.314;2023-08-06T04:02:38;13.10;99.90
20319;DHT22;10317;47.254;11.314;2023-08-06T04:05:04;13.10;99.90
20319;DHT22;10317;47.254;11.314;2023-08-06T04:07:30;13.00;99.90
20319;DHT22;10317;47.254;11.314;2023-08-06T04:09:58;13.10;99.90
20319;DHT22;10317;47.254;11.314;2023-08-06T04:12:24;13.00;99.90
20319;DHT22;10317;47.254;11.314;2023-08-06T04:14:51;13.00;99.90
20319;DHT22;10317;47.254;11.314;2023-08-06T04:17:18;13.00;99.90
20319;DHT22;10317;47.254;11.314;2023-08-06T04:19:51;13.00;99.90
20319;DHT22;10317;47.254;11.314;2023-08-06T04:22:17;13.00;99.90
20319;DHT22;10317;47.254;11.314;2023-08-06T04:24:43;13.00;99.90
20319;DHT22;10317;47.254;11.314;2023-08-06T04:27:09;13.00;99.90
20319;DHT22;10317;47.254;11.314;2023-08-06T04:29:35;13.00;99.90
20319;DHT22;10317;47.254;11.314;2023-08-06T04:32:01;13.00;99.90
20319;DHT22;10317;47.254;11.314;2023-08-06T04:34:27;13.00;99.90
20319;DHT22;10317;47.254;11.314;2023-08-06T04:36:53;13.00;99.90
20319;DHT22;10317;47.254;11.314;2023-08-06T04:39:18;12.90;99.90
20319;DHT22;10317;47.254;11.314;2023-08-06T04:41:44;12.80;99.90
20319;DHT22;10317;47.254;11.314;2023-08-06T04:44:10;12.80;99.90
20319;DHT22;10317;47.254;11.314;2023-08-06T04:46:35;12.70;99.90
20319;DHT22;10317;47.254;11.314;2023-08-06T04:49:01;12.70;99.90
20319;DHT22;10317;47.254;11.314;2023-08-06T04:51:27;12.80;99.90
20319;DHT22;10317;47.254;11.314;2023-08-06T04:53:53;12.70;99.90
20319;DHT22;10317;47.254;11.314;2023-08-06T04:56:18;12.70;99.90
20319;DHT22;10317;47.254;11.314;2023-08-06T04:58:44;12.60;99.90
20319;DHT22;10317;47.254;11.314;2023-08-06T05:01:10;12.60;99.90
20319;DHT22;10317;47.254;11.314;2023-08-06T05:03:35;12.70;99.90
20319;DHT22;10317;47.254;11.314;2023-08-06T05:06:01;12.70;99.90
20319;DHT22;10317;47.254;11.314;2023-08-06T05:08:27;12.80;99.90
20319;DHT22;10317;47.254;11.314;2023-08-06T05:10:52;12.80;99.90
20319;DHT22;10317;47.254;11.314;2023-08-06T05:13:18;12.90;99.90
20319;DHT22;10317;47.254;11.314;2023-08-06T05:15:44;13.10;99.90
20319;DHT22;10317;47.254;11.314;2023-08-06T05:18:11;13.20;99.90
20319;DHT22;10317;47.254;11.314;2023-08-06T05:20:41;13.30;99.90
20319;DHT22;10317;47.254;11.314;2023-08-06T05:23:07;13.40;99.90
20319;DHT22;10317;47.254;11.314;2023-08-06T05:25:34;13.60;99.90
20319;DHT22;10317;47.254;11.314;2023-08-06T05:28:01;13.70;99.90
20319;DHT22;10317;47.254;11.314;2023-08-06T05:30:27;13.80;99.90
20319;DHT22;10317;47.254;11.314;2023-08-06T05:32:53;13.80;99.90
20319;DHT22;10317;47.254;11.314;2023-08-06T05:35:18;13.80;99.90
20319;DHT22;10317;47.254;11.314;2023-08-06T05:37:45;13.80;99.90
20319;DHT22;10317;47.254;11.314;2023-08-06T05:40:11;13.80;99.90
20319;DHT22;10317;47.254;11.314;2023-08-06T05:42:37;13.90;99.90
20319;DHT22;10317;47.254;11.314;2023-08-06T05:45:02;13.90;99.90
20319;DHT22;10317;47.254;11.314;2023-08-06T05:47:28;14.10;99.90
20319;DHT22;10317;47.254;11.314;2023-08-06T05:49:54;14.10;99.90
20319;DHT22;10317;47.254;11.314;2023-08-06T05:52:19;14.10;99.90
20319;DHT22;10317;47.254;11.314;2023-08-06T05:54:45;14.00;99.90
20319;DHT22;10317;47.254;11.314;2023-08-06T05:57:11;14.10;99.90
20319;DHT22;10317;47.254;11.314;2023-08-06T05:59:36;14.30;99.90
20319;DHT22;10317;47.254;11.314;2023-08-06T06:02:02;14.80;99.90
20319;DHT22;10317;47.254;11.314;2023-08-06T06:04:28;15.50;99.90
20319;DHT22;10317;47.254;11.314;2023-08-06T06:06:54;16.40;99.90
20319;DHT22;10317;47.254;11.314;2023-08-06T06:09:19;17.00;99.90
20319;DHT22;10317;47.254;11.314;2023-08-06T06:11:45;17.40;99.90
20319;DHT22;10317;47.254;11.314;2023-08-06T06:14:11;17.60;99.90
20319;DHT22;10317;47.254;11.314;2023-08-06T06:16:36;17.70;99.90
20319;DHT22;10317;47.254;11.314;2023-08-06T06:19:02;17.70;99.90
20319;DHT22;10317;47.254;11.314;2023-08-06T06:21:28;17.50;99.90
20319;DHT22;10317;47.254;11.314;2023-08-06T06:23:53;17.60;99.90
20319;DHT22;10317;47.254;11.314;2023-08-06T06:26:19;17.90;99.90
20319;DHT22;10317;47.254;11.314;2023-08-06T06:28:45;18.10;99.90
20319;DHT22;10317;47.254;11.314;2023-08-06T06:31:11;18.50;99.90
20319;DHT22;10317;47.254;11.314;2023-08-06T06:33:36;19.10;99.90
20319;DHT22;10317;47.254;11.314;2023-08-06T06:36:02;19.20;99.90
20319;DHT22;10317;47.254;11.314;2023-08-06T06:38:33;19.30;99.90
20319;DHT22;10317;47.254;11.314;2023-08-06T06:40:59;19.30;99.90
20319;DHT22;10317;47.254;11.314;2023-08-06T06:43:26;19.80;99.90
20319;DHT22;10317;47.254;11.314;2023-08-06T06:45:58;20.20;99.90
20319;DHT22;10317;47.254;11.314;2023-08-06T06:48:28;20.70;99.90
20319;DHT22;10317;47.254;11.314;2023-08-06T06:50:55;21.40;99.90
20319;DHT22;10317;47.254;11.314;2023-08-06T06:53:21;22.10;99.90
20319;DHT22;10317;47.254;11.314;2023-08-06T06:55:53;22.80;99.90
20319;DHT22;10317;47.254;11.314;2023-08-06T06:58:18;23.20;99.90
20319;DHT22;10317;47.254;11.314;2023-08-06T07:00:46;24.00;99.00
20319;DHT22;10317;47.254;11.314;2023-08-06T07:03:11;24.00;97.90
20319;DHT22;10317;47.254;11.314;2023-08-06T07:05:37;24.60;95.40
20319;DHT22;10317;47.254;11.314;2023-08-06T07:08:03;24.70;95.20
20319;DHT22;10317;47.254;11.314;2023-08-06T07:10:28;25.20;94.30
20319;DHT22;10317;47.254;11.314;2023-08-06T07:12:54;24.90;92.90
20319;DHT22;10317;47.254;11.314;2023-08-06T07:15:20;25.30;91.90
20319;DHT22;10317;47.254;11.314;2023-08-06T07:17:45;24.80;90.20
20319;DHT22;10317;47.254;11.314;2023-08-06T07:20:11;23.70;90.80
20319;DHT22;10317;47.254;11.314;2023-08-06T07:22:37;22.70;94.40
20319;DHT22;10317;47.254;11.314;2023-08-06T07:25:03;22.00;96.70
20319;DHT22;10317;47.254;11.314;2023-08-06T07:27:28;21.30;95.70
20319;DHT22;10317;47.254;11.314;2023-08-06T07:29:54;21.00;99.30
20319;DHT22;10317;47.254;11.314;2023-08-06T07:32:20;20.60;98.70
20319;DHT22;10317;47.254;11.314;2023-08-06T07:34:45;20.20;98.60
20319;DHT22;10317;47.254;11.314;2023-08-06T07:37:11;19.80;99.90
20319;DHT22;10317;47.254;11.314;2023-08-06T07:39:37;19.40;99.90
20319;DHT22;10317;47.254;11.314;2023-08-06T07:42:05;19.10;99.90
20319;DHT22;10317;47.254;11.314;2023-08-06T07:44:32;18.90;99.90
20319;DHT22;10317;47.254;11.314;2023-08-06T07:46:58;18.70;99.90
20319;DHT22;10317;47.254;11.314;2023-08-06T07:49:23;18.40;99.90
20319;DHT22;10317;47.254;11.314;2023-08-06T07:51:50;18.30;99.90
20319;DHT22;10317;47.254;11.314;2023-08-06T07:54:17;18.30;99.90
20319;DHT22;10317;47.254;11.314;2023-08-06T07:56:45;18.20;99.90
20319;DHT22;10317;47.254;11.314;2023-08-06T07:59:23;18.00;99.90
20319;DHT22;10317;47.254;11.314;2023-08-06T08:01:54;18.00;99.90
20319;DHT22;10317;47.254;11.314;2023-08-06T08:07:02;17.70;99.90
20319;DHT22;10317;47.254;11.314;2023-08-06T08:09:37;17.70;99.90
20319;DHT22;10317;47.254;11.314;2023-08-06T08:12:05;17.70;99.90
20319;DHT22;10317;47.254;11.314;2023-08-06T08:14:31;17.60;99.90
20319;DHT22;10317;47.254;11.314;2023-08-06T08:17:05;17.50;99.90
20319;DHT22;10317;47.254;11.314;2023-08-06T08:19:31;17.40;99.90
20319;DHT22;10317;47.254;11.314;2023-08-06T08:21:57;17.40;99.90
20319;DHT22;10317;47.254;11.314;2023-08-06T08:24:23;17.20;99.90
20319;DHT22;10317;47.254;11.314;2023-08-06T08:26:52;17.10;99.90
20319;DHT22;10317;47.254;11.314;2023-08-06T08:29:19;17.00;99.90
20319;DHT22;10317;47.254;11.314;2023-08-06T08:31:46;17.00;99.90
20319;DHT22;10317;47.254;11.314;2023-08-06T08:34:15;17.00;99.90
20319;DHT22;10317;47.254;11.314;2023-08-06T08:36:40;17.10;99.90
20319;DHT22;10317;47.254;11.314;2023-08-06T08:39:09;17.20;99.90
20319;DHT22;10317;47.254;11.314;2023-08-06T08:41:38;17.20;99.90
20319;DHT22;10317;47.254;11.314;2023-08-06T08:44:08;17.20;99.90
20319;DHT22;10317;47.254;11.314;2023-08-06T08:46:57;17.20;99.90
20319;DHT22;10317;47.254;11.314;2023-08-06T08:49:43;17.20;99.90
20319;DHT22;10317;47.254;11.314;2023-08-06T08:52:18;17.00;99.90
20319;DHT22;10317;47.254;11.314;2023-08-06T08:54:46;17.00;99.90
20319;DHT22;10317;47.254;11.314;2023-08-06T08:57:20;17.30;99.90
20319;DHT22;10317;47.254;11.314;2023-08-06T08:59:46;17.40;99.90
20319;DHT22;10317;47.254;11.314;2023-08-06T09:02:21;17.60;99.90
20319;DHT22;10317;47.254;11.314;2023-08-06T09:04:48;17.70;99.90
20319;DHT22;10317;47.254;11.314;2023-08-06T09:07:18;17.60;99.90
20319;DHT22;10317;47.254;11.314;2023-08-06T09:09:49;17.50;99.90
20319;DHT22;10317;47.254;11.314;2023-08-06T09:12:18;17.60;99.90
20319;DHT22;10317;47.254;11.314;2023-08-06T09:14:44;17.90;99.90
20319;DHT22;10317;47.254;11.314;2023-08-06T09:17:10;18.30;99.90
20319;DHT22;10317;47.254;11.314;2023-08-06T09:19:42;18.90;99.90
20319;DHT22;10317;47.254;11.314;2023-08-06T09:22:12;19.40;99.90
20319;DHT22;10317;47.254;11.314;2023-08-06T09:24:41;20.20;99.90
20319;DHT22;10317;47.254;11.314;2023-08-06T09:27:14;21.00;99.90
20319;DHT22;10317;47.254;11.314;2023-08-06T09:29:41;21.00;99.90
20319;DHT22;10317;47.254;11.314;2023-08-06T09:32:07;21.30;99.90
20319;DHT22;10317;47.254;11.314;2023-08-06T09:34:33;21.10;99.90
20319;DHT22;10317;47.254;11.314;2023-08-06T09:36:59;21.10;99.70
20319;DHT22;10317;47.254;11.314;2023-08-06T09:39:30;20.50;99.90
20319;DHT22;10317;47.254;11.314;2023-08-06T09:41:58;20.20;99.90
20319;DHT22;10317;47.254;11.314;2023-08-06T09:44:25;20.00;99.90
20319;DHT22;10317;47.254;11.314;2023-08-06T09:46:53;19.50;99.90
20319;DHT22;10317;47.254;11.314;2023-08-06T09:49:21;19.40;98.90
20319;DHT22;10317;47.254;11.314;2023-08-06T09:51:47;19.30;99.40
20319;DHT22;10317;47.254;11.314;2023-08-06T09:54:16;19.20;99.60
20319;DHT22;10317;47.254;11.314;2023-08-06T09:56:43;19.20;97.40
20319;DHT22;10317;47.254;11.314;2023-08-06T09:59:09;19.00;99.00
20319;DHT22;10317;47.254;11.314;2023-08-06T10:01:37;18.90;99.90
20319;DHT22;10317;47.254;11.314;2023-08-06T10:04:04;19.30;99.90
20319;DHT22;10317;47.254;11.314;2023-08-06T10:06:34;19.50;99.90
20319;DHT22;10317;47.254;11.314;2023-08-06T10:09:01;19.60;99.90
20319;DHT22;10317;47.254;11.314;2023-08-06T10:11:27;19.90;97.90
20319;DHT22;10317;47.254;11.314;2023-08-06T10:16:42;20.10;98.30
20319;DHT22;10317;47.254;11.314;2023-08-06T10:19:10;20.50;97.70
20319;DHT22;10317;47.254;11.314;2023-08-06T10:21:38;20.90;98.70
20319;DHT22;10317;47.254;11.314;2023-08-06T10:24:07;21.20;99.90
20319;DHT22;10317;47.254;11.314;2023-08-06T10:26:36;21.40;93.50
20319;DHT22;10317;47.254;11.314;2023-08-06T10:29:01;21.40;96.70
20319;DHT22;10317;47.254;11.314;2023-08-06T10:31:54;21.30;96.50
20319;DHT22;10317;47.254;11.314;2023-08-06T10:34:21;20.70;93.80
20319;DHT22;10317;47.254;11.314;2023-08-06T10:36:46;20.40;91.90
20319;DHT22;10317;47.254;11.314;2023-08-06T10:39:16;20.10;94.40
20319;DHT22;10317;47.254;11.314;2023-08-06T10:45:18;19.80;95.70
20319;DHT22;10317;47.254;11.314;2023-08-06T10:47:47;20.30;96.50
20319;DHT22;10317;47.254;11.314;2023-08-06T10:50:15;20.50;94.60
20319;DHT22;10317;47.254;11.314;2023-08-06T10:56:00;21.00;93.50
20319;DHT22;10317;47.254;11.314;2023-08-06T10:58:34;21.00;92.10
20319;DHT22;10317;47.254;11.314;2023-08-06T11:01:16;20.90;93.90
20319;DHT22;10317;47.254;11.314;2023-08-06T11:03:46;21.00;92.70
20319;DHT22;10317;47.254;11.314;2023-08-06T11:06:42;21.40;94.90
20319;DHT22;10317;47.254;11.314;2023-08-06T11:09:25;21.00;92.00
20319;DHT22;10317;47.254;11.314;2023-08-06T11:12:11;20.80;92.30
20319;DHT22;10317;47.254;11.314;2023-08-06T11:14:52;20.60;90.40
20319;DHT22;10317;47.254;11.314;2023-08-06T11:20:32;20.10;88.80
20319;DHT22;10317;47.254;11.314;2023-08-06T11:23:09;19.80;89.10
20319;DHT22;10317;47.254;11.314;2023-08-06T11:25:45;19.70;89.00
20319;DHT22;10317;47.254;11.314;2023-08-06T11:28:34;19.80;90.50
20319;DHT22;10317;47.254;11.314;2023-08-06T11:31:25;19.60;90.80
20319;DHT22;10317;47.254;11.314;2023-08-06T11:34:00;19.50;87.90
20319;DHT22;10317;47.254;11.314;2023-08-06T11:36:56;19.40;83.50
20319;DHT22;10317;47.254;11.314;2023-08-06T11:39:22;19.40;89.70
20319;DHT22;10317;47.254;11.314;2023-08-06T11:41:48;19.70;90.10
20319;DHT22;10317;47.254;11.314;2023-08-06T11:44:14;20.00;85.00
20319;DHT22;10317;47.254;11.314;2023-08-06T11:47:01;20.20;87.30
20319;DHT22;10317;47.254;11.314;2023-08-06T11:49:45;20.30;87.80
20319;DHT22;10317;47.254;11.314;2023-08-06T11:52:20;20.20;82.90
20319;DHT22;10317;47.254;11.314;2023-08-06T11:57:32;20.10;83.90
20319;DHT22;10317;47.254;11.314;2023-08-06T12:00:06;19.80;85.20
20319;DHT22;10317;47.254;11.314;2023-08-06T12:02:41;19.60;87.90
20319;DHT22;10317;47.254;11.314;2023-08-06T12:05:12;19.50;87.10
20319;DHT22;10317;47.254;11.314;2023-08-06T12:07:48;19.60;89.20
20319;DHT22;10317;47.254;11.314;2023-08-06T12:10:19;19.90;83.50
20319;DHT22;10317;47.254;11.314;2023-08-06T12:12:48;20.00;87.60
20319;DHT22;10317;47.254;11.314;2023-08-06T12:15:14;20.30;86.40
20319;DHT22;10317;47.254;11.314;2023-08-06T12:17:40;20.50;83.90
20319;DHT22;10317;47.254;11.314;2023-08-06T12:20:07;20.60;85.60
20319;DHT22;10317;47.254;11.314;2023-08-06T12:22:41;20.80;85.70
20319;DHT22;10317;47.254;11.314;2023-08-06T12:25:10;20.80;82.10
20319;DHT22;10317;47.254;11.314;2023-08-06T12:27:43;20.80;80.30
20319;DHT22;10317;47.254;11.314;2023-08-06T12:30:12;20.60;79.60
20319;DHT22;10317;47.254;11.314;2023-08-06T12:32:38;20.30;80.30
20319;DHT22;10317;47.254;11.314;2023-08-06T12:35:10;20.10;84.10
20319;DHT22;10317;47.254;11.314;2023-08-06T12:37:38;20.00;83.70
20319;DHT22;10317;47.254;11.314;2023-08-06T12:40:05;20.00;83.40
20319;DHT22;10317;47.254;11.314;2023-08-06T12:42:31;19.80;83.20
20319;DHT22;10317;47.254;11.314;2023-08-06T12:44:56;19.70;90.30
20319;DHT22;10317;47.254;11.314;2023-08-06T12:47:22;19.60;88.70
20319;DHT22;10317;47.254;11.314;2023-08-06T12:49:48;19.60;89.80
20319;DHT22;10317;47.254;11.314;2023-08-06T12:52:15;19.70;86.20
20319;DHT22;10317;47.254;11.314;2023-08-06T12:54:42;19.80;84.10
20319;DHT22;10317;47.254;11.314;2023-08-06T12:57:08;19.80;82.00
20319;DHT22;10317;47.254;11.314;2023-08-06T12:59:43;19.90;87.20
20319;DHT22;10317;47.254;11.314;2023-08-06T13:02:09;19.90;86.70
20319;DHT22;10317;47.254;11.314;2023-08-06T13:04:35;19.90;87.70
20319;DHT22;10317;47.254;11.314;2023-08-06T13:07:00;19.70;90.80
20319;DHT22;10317;47.254;11.314;2023-08-06T13:09:26;19.40;83.80
20319;DHT22;10317;47.254;11.314;2023-08-06T13:11:53;19.40;87.40
20319;DHT22;10317;47.254;11.314;2023-08-06T13:14:24;19.60;91.70
20319;DHT22;10317;47.254;11.314;2023-08-06T13:16:58;19.70;90.10
20319;DHT22;10317;47.254;11.314;2023-08-06T13:19:29;19.60;88.40
20319;DHT22;10317;47.254;11.314;2023-08-06T13:22:18;19.70;86.20
20319;DHT22;10317;47.254;11.314;2023-08-06T13:24:44;19.90;81.20
20319;DHT22;10317;47.254;11.314;2023-08-06T13:27:10;20.20;73.10
20319;DHT22;10317;47.254;11.314;2023-08-06T13:29:36;20.30;73.70
20319;DHT22;10317;47.254;11.314;2023-08-06T13:32:02;20.30;72.60
20319;DHT22;10317;47.254;11.314;2023-08-06T13:34:28;20.30;72.60
20319;DHT22;10317;47.254;11.314;2023-08-06T13:36:54;20.30;73.00
20319;DHT22;10317;47.254;11.314;2023-08-06T13:39:21;20.30;74.10
20319;DHT22;10317;47.254;11.314;2023-08-06T13:42:17;20.40;72.40
20319;DHT22;10317;47.254;11.314;2023-08-06T13:44:49;20.30;69.40
20319;DHT22;10317;47.254;11.314;2023-08-06T13:47:46;20.30;71.10
20319;DHT22;10317;47.254;11.314;2023-08-06T13:50:14;20.10;68.60
20319;DHT22;10317;47.254;11.314;2023-08-06T13:53:10;20.00;70.20
20319;DHT22;10317;47.254;11.314;2023-08-06T13:56:20;19.70;75.70
20319;DHT22;10317;47.254;11.314;2023-08-06T13:59:07;19.60;73.80
20319;DHT22;10317;47.254;11.314;2023-08-06T14:01:48;19.40;79.20
20319;DHT22;10317;47.254;11.314;2023-08-06T14:04:36;19.20;77.30
20319;DHT22;10317;47.254;11.314;2023-08-06T14:07:08;19.10;73.90
20319;DHT22;10317;47.254;11.314;2023-08-06T14:12:52;19.00;80.10
20319;DHT22;10317;47.254;11.314;2023-08-06T14:15:20;19.30;77.70
20319;DHT22;10317;47.254;11.314;2023-08-06T14:17:51;19.60;78.00
20319;DHT22;10317;47.254;11.314;2023-08-06T14:20:46;19.80;77.60
20319;DHT22;10317;47.254;11.314;2023-08-06T14:52:58;20.90;67.70
20319;DHT22;10317;47.254;11.314;2023-08-06T15:02:26;20.50;62.90
20319;DHT22;10317;47.254;11.314;2023-08-06T15:08:35;20.30;62.90
20319;DHT22;10317;47.254;11.314;2023-08-06T15:11:22;20.20;69.60
20319;DHT22;10317;47.254;11.314;2023-08-06T15:17:24;19.80;70.90
20319;DHT22;10317;47.254;11.314;2023-08-06T15:23:24;19.80;72.30
20319;DHT22;10317;47.254;11.314;2023-08-06T15:28:36;19.90;66.20
20319;DHT22;10317;47.254;11.314;2023-08-06T15:36:28;19.60;66.30
20319;DHT22;10317;47.254;11.314;2023-08-06T16:01:54;19.20;65.00
20319;DHT22;10317;47.254;11.314;2023-08-06T16:04:55;19.50;66.70
20319;DHT22;10317;47.254;11.314;2023-08-06T16:08:11;19.50;64.40
20319;DHT22;10317;47.254;11.314;2023-08-06T16:20:44;19.30;69.90
20319;DHT22;10317;47.254;11.314;2023-08-06T16:25:50;19.20;66.90
20319;DHT22;10317;47.254;11.314;2023-08-06T16:28:28;19.20;64.30
20319;DHT22;10317;47.254;11.314;2023-08-06T16:31:12;19.20;66.60
20319;DHT22;10317;47.254;11.314;2023-08-06T16:33:59;19.10;72.50
20319;DHT22;10317;47.254;11.314;2023-08-06T16:36:49;19.20;68.50
20319;DHT22;10317;47.254;11.314;2023-08-06T16:40:03;19.10;74.40
20319;DHT22;10317;47.254;11.314;2023-08-06T17:02:03;18.20;74.40
20319;DHT22;10317;47.254;11.314;2023-08-06T17:04:57;18.10;74.20
20319;DHT22;10317;47.254;11.314;2023-08-06T17:07:57;18.20;71.40
20319;DHT22;10317;47.254;11.314;2023-08-06T17:10:46;18.30;70.60
20319;DHT22;10317;47.254;11.314;2023-08-06T17:30:48;17.00;79.80
20319;DHT22;10317;47.254;11.314;2023-08-06T17:46:40;16.40;76.70
20319;DHT22;10317;47.254;11.314;2023-08-06T17:57:06;15.90;79.90
20319;DHT22;10317;47.254;11.314;2023-08-06T17:59:32;15.90;74.40
20319;DHT22;10317;47.254;11.314;2023-08-06T18:01:57;15.90;72.80
20319;DHT22;10317;47.254;11.314;2023-08-06T18:04:37;16.00;71.50
20319;DHT22;10317;47.254;11.314;2023-08-06T18:07:06;16.10;76.20
20319;DHT22;10317;47.254;11.314;2023-08-06T18:09:32;16.00;71.50
20319;DHT22;10317;47.254;11.314;2023-08-06T18:12:01;16.00;71.90
20319;DHT22;10317;47.254;11.314;2023-08-06T18:14:27;15.90;77.50
20319;DHT22;10317;47.254;11.314;2023-08-06T18:17:03;15.90;73.70
20319;DHT22;10317;47.254;11.314;2023-08-06T18:19:30;15.80;77.40
20319;DHT22;10317;47.254;11.314;2023-08-06T18:21:55;15.70;77.80
20319;DHT22;10317;47.254;11.314;2023-08-06T18:24:22;15.70;76.90
20319;DHT22;10317;47.254;11.314;2023-08-06T18:26:48;15.60;76.60
20319;DHT22;10317;47.254;11.314;2023-08-06T18:29:14;15.60;75.30